Solen, North Dakota
Current Conditions -  °F | °C
As of 6:28 AM on Monday 22 Dec 2014 (Local Time) from KBIS Reporting Station
Moderate Fog Moderate Fog  
Wind Chill: 28°   Ceiling: 200
Heat Index: 28°   Visibility: 0.25mi
Dew Point: 28°   Wind: 3mph
Humidity: 100%   Direction: 50°NE
Pressure: 29.46"   Gusts: NA
Location:  46.39°N, 100.8°W
Report Text: KBIS 221328Z 05003KT 1/4SM R31/1800V2200FT FZFG VV002 M02/M02 A2946 RMK AO2 I1000 T10221022
Loading
Personal Weather Stations






























Interactive Weather Map New forecast layout! Learn more

10-Day Weather Forecast

Advertisements
Track Severe Weather on mobile